createdAt,value
2016-12-26T00:00:46.807Z,1012.16
2016-12-26T00:01:46.583Z,1012.23
2016-12-26T00:02:46.926Z,1012.23
2016-12-26T00:03:46.627Z,1012.18
2016-12-26T00:04:46.629Z,1012.27
2016-12-26T00:05:47.430Z,1012.3
2016-12-26T00:06:46.764Z,1012.38
2016-12-26T00:07:46.760Z,1012.24
2016-12-26T00:08:47.014Z,1012.21
2016-12-26T00:09:46.850Z,1012.3
2016-12-26T00:10:46.759Z,1012.27
2016-12-26T00:11:46.868Z,1012.21
2016-12-26T00:12:46.859Z,1012.17
2016-12-26T00:13:47.063Z,1012.13
2016-12-26T00:14:47.137Z,1012.13
2016-12-26T00:15:46.851Z,1012.19
2016-12-26T00:16:46.841Z,1012.16
2016-12-26T00:17:47.009Z,1012.18
2016-12-26T00:18:46.836Z,1012.19
2016-12-26T00:19:46.971Z,1012.14
2016-12-26T00:20:47.053Z,1012.17
2016-12-26T00:21:46.964Z,1012.27
2016-12-26T00:22:47.203Z,1012.19
2016-12-26T00:23:46.911Z,1012.24
2016-12-26T00:24:46.868Z,1012.21
2016-12-26T00:25:46.898Z,1012.22
2016-12-26T00:26:47.009Z,1012.19
2016-12-26T00:27:47.114Z,1012.1
2016-12-26T00:28:47.185Z,1012.11
2016-12-26T00:29:47.066Z,1012.1
2016-12-26T00:30:47.516Z,1012.11
2016-12-26T00:31:47.034Z,1012.09
2016-12-26T00:32:47.148Z,1012.1
2016-12-26T00:33:47.088Z,1012.15
2016-12-26T00:34:47.260Z,1012.19
2016-12-26T00:35:47.331Z,1012.14
2016-12-26T00:36:47.287Z,1012.15
2016-12-26T00:37:47.522Z,1012.1
2016-12-26T00:38:47.176Z,1012.13
2016-12-26T00:39:47.255Z,1012.15
2016-12-26T00:40:47.165Z,1012.09
2016-12-26T00:41:47.187Z,1012.16
2016-12-26T00:42:47.473Z,1012.1
2016-12-26T00:43:47.709Z,1012.1
2016-12-26T00:44:47.361Z,1012.09
2016-12-26T00:45:47.392Z,1012.1
2016-12-26T00:46:47.501Z,1012.11
2016-12-26T00:47:48.066Z,1012.03
2016-12-26T00:48:47.500Z,1012.03
2016-12-26T00:49:47.317Z,1011.98
2016-12-26T00:50:47.472Z,1012.09
2016-12-26T00:51:47.553Z,1012.04
2016-12-26T00:52:47.639Z,1012.03
2016-12-26T00:53:47.519Z,1012.06
2016-12-26T00:54:47.773Z,1012.01
2016-12-26T00:55:47.477Z,1012.02
2016-12-26T00:56:47.684Z,1011.96
2016-12-26T00:57:47.854Z,1012.01
2016-12-26T00:58:48.073Z,1012.03
2016-12-26T00:59:47.630Z,1012.05
2016-12-26T01:00:47.834Z,1012
2016-12-26T01:01:47.583Z,1012.19
2016-12-26T01:02:47.591Z,1012.11
2016-12-26T01:03:47.726Z,1012.1
2016-12-26T01:04:47.929Z,1012.07
2016-12-26T01:05:47.763Z,1012.06
2016-12-26T01:06:47.740Z,1012.05
2016-12-26T01:07:47.682Z,1012.1
2016-12-26T01:08:47.758Z,1012.1
2016-12-26T01:09:47.842Z,1012.17
2016-12-26T01:10:48.033Z,1012.16
2016-12-26T01:11:48.325Z,1012.16
2016-12-26T01:12:48.002Z,1012.07
2016-12-26T01:13:47.976Z,1012.07
2016-12-26T01:14:48.219Z,1012.12
2016-12-26T01:15:47.868Z,1012.12
2016-12-26T01:16:47.918Z,1012.13
2016-12-26T01:17:47.793Z,1012.12
2016-12-26T01:18:48.004Z,1012.13
2016-12-26T01:19:48.174Z,1012.12
2016-12-26T01:20:48.479Z,1012.15
2016-12-26T01:21:47.928Z,1012.17
2016-12-26T01:22:47.947Z,1012.16
2016-12-26T01:23:48.160Z,1012.18
2016-12-26T01:24:47.955Z,1012.15
2016-12-26T01:25:48.254Z,1012.08
2016-12-26T01:26:48.183Z,1012.15
2016-12-26T01:27:48.111Z,1012.15
2016-12-26T01:28:48.238Z,1012.16
2016-12-26T01:29:48.257Z,1012.15
2016-12-26T01:30:48.457Z,1012.15
2016-12-26T01:31:48.372Z,1012.08
2016-12-26T01:32:48.308Z,1012.1
2016-12-26T01:33:48.464Z,1012.15
2016-12-26T01:34:48.186Z,1012.09
2016-12-26T01:35:48.206Z,1012.14
2016-12-26T01:36:48.515Z,1012.16
2016-12-26T01:37:48.250Z,1012.13
2016-12-26T01:38:48.235Z,1012.12
2016-12-26T01:39:48.268Z,1012.11
2016-12-26T01:40:48.253Z,1012.12
2016-12-26T01:41:48.307Z,1012.08
2016-12-26T01:42:48.571Z,1012.08
2016-12-26T01:43:48.360Z,1012.11
2016-12-26T01:44:48.710Z,1012.08
2016-12-26T01:45:48.502Z,1012.08
2016-12-26T01:46:48.761Z,1012.09
2016-12-26T01:47:48.453Z,1011.99
2016-12-26T01:48:49.094Z,1012.12
2016-12-26T01:49:48.577Z,1012.1
2016-12-26T01:50:48.503Z,1012.11
2016-12-26T01:51:48.597Z,1012.07
2016-12-26T01:52:48.602Z,1012.08
2016-12-26T01:53:48.829Z,1012.01
2016-12-26T01:54:48.755Z,1012.02
2016-12-26T01:55:48.798Z,1011.95
2016-12-26T01:56:48.582Z,1011.98
2016-12-26T01:57:48.896Z,1011.9
2016-12-26T01:58:48.622Z,1011.93
2016-12-26T01:59:48.822Z,1011.9
2016-12-26T02:00:48.948Z,1011.95
2016-12-26T02:01:48.588Z,1011.84
2016-12-26T02:02:48.859Z,1011.89
2016-12-26T02:03:48.879Z,1011.84
2016-12-26T02:04:48.744Z,1011.77
2016-12-26T02:05:48.864Z,1011.8
2016-12-26T02:06:48.822Z,1011.84
2016-12-26T02:07:49.245Z,1011.72
2016-12-26T02:08:49.375Z,1011.78
2016-12-26T02:09:48.964Z,1011.88
2016-12-26T02:10:48.870Z,1011.81
2016-12-26T02:11:49.327Z,1011.73
2016-12-26T02:12:48.892Z,1011.75
2016-12-26T02:13:49.652Z,1011.76
2016-12-26T02:14:49.168Z,1011.79
2016-12-26T02:15:48.864Z,1011.69
2016-12-26T02:16:48.973Z,1011.71
2016-12-26T02:17:49.134Z,1011.76
2016-12-26T02:18:48.941Z,1011.76
2016-12-26T02:19:49.091Z,1011.73
2016-12-26T02:20:48.946Z,1011.87
2016-12-26T02:21:49.504Z,1011.68
2016-12-26T02:22:49.185Z,1011.67
2016-12-26T02:23:49.042Z,1011.69
2016-12-26T02:24:49.364Z,1011.65
2016-12-26T02:25:49.126Z,1011.7
2016-12-26T02:26:49.199Z,1011.63
2016-12-26T02:27:49.137Z,1011.65
2016-12-26T02:28:49.554Z,1011.64
2016-12-26T02:29:49.254Z,1011.62
2016-12-26T02:30:49.070Z,1011.7
2016-12-26T02:31:49.233Z,1011.62
2016-12-26T02:32:49.201Z,1011.53
2016-12-26T02:33:49.394Z,1011.59
2016-12-26T02:34:49.237Z,1011.46
2016-12-26T02:35:49.582Z,1011.47
2016-12-26T02:36:49.539Z,1011.42
2016-12-26T02:37:49.352Z,1011.45
2016-12-26T02:38:49.686Z,1011.43
2016-12-26T02:39:49.364Z,1011.41
2016-12-26T02:40:49.660Z,1011.41
2016-12-26T02:41:49.652Z,1011.44
2016-12-26T02:42:49.487Z,1011.44
2016-12-26T02:43:49.339Z,1011.42
2016-12-26T02:44:49.462Z,1011.45
2016-12-26T02:45:49.577Z,1011.44
2016-12-26T02:46:49.447Z,1011.43
2016-12-26T02:47:49.652Z,1011.38
2016-12-26T02:48:49.463Z,1011.37
2016-12-26T02:49:49.550Z,1011.44
2016-12-26T02:50:49.421Z,1011.44
2016-12-26T02:51:49.456Z,1011.37
2016-12-26T02:52:49.509Z,1011.42
2016-12-26T02:53:49.540Z,1011.5
2016-12-26T02:54:49.865Z,1011.49
2016-12-26T02:55:49.849Z,1011.49
2016-12-26T02:56:49.518Z,1011.47
2016-12-26T02:57:49.750Z,1011.54
2016-12-26T02:58:49.795Z,1011.43
2016-12-26T02:59:49.979Z,1011.47
2016-12-26T03:00:49.899Z,1011.41
2016-12-26T03:01:49.734Z,1011.55
2016-12-26T03:02:49.722Z,1011.58
2016-12-26T03:03:49.886Z,1011.49
2016-12-26T03:04:49.857Z,1011.49
2016-12-26T03:05:49.836Z,1011.46
2016-12-26T03:06:49.860Z,1011.4
2016-12-26T03:07:49.778Z,1011.4
2016-12-26T03:08:49.838Z,1011.44
2016-12-26T03:09:49.847Z,1011.42
2016-12-26T03:10:49.972Z,1011.5
2016-12-26T03:11:50.133Z,1011.53
2016-12-26T03:12:50.116Z,1011.52
2016-12-26T03:13:50.251Z,1011.53
2016-12-26T03:14:50.074Z,1011.54
2016-12-26T03:15:50.002Z,1011.48
2016-12-26T03:16:50.159Z,1011.49
2016-12-26T03:17:50.156Z,1011.57
2016-12-26T03:18:50.254Z,1011.58
2016-12-26T03:19:49.942Z,1011.64
2016-12-26T03:20:50.412Z,1011.63
2016-12-26T03:21:50.426Z,1011.63
2016-12-26T03:22:50.212Z,1011.55
2016-12-26T03:23:50.117Z,1011.55
2016-12-26T03:24:50.090Z,1011.59
2016-12-26T03:25:50.483Z,1011.54
2016-12-26T03:26:50.706Z,1011.47
2016-12-26T03:27:50.252Z,1011.47
2016-12-26T03:28:50.433Z,1011.46
2016-12-26T03:29:50.207Z,1011.49
2016-12-26T03:30:50.173Z,1011.41
2016-12-26T03:31:50.445Z,1011.47
2016-12-26T03:32:50.185Z,1011.43
2016-12-26T03:33:50.397Z,1011.42
2016-12-26T03:34:50.344Z,1011.45
2016-12-26T03:35:50.365Z,1011.47
2016-12-26T03:36:50.587Z,1011.5
2016-12-26T03:37:50.574Z,1011.46
2016-12-26T03:38:50.371Z,1011.47
2016-12-26T03:39:50.452Z,1011.43
2016-12-26T03:40:50.608Z,1011.37
2016-12-26T03:41:50.881Z,1011.32
2016-12-26T03:42:50.467Z,1011.37
2016-12-26T03:43:50.466Z,1011.32
2016-12-26T03:44:51.307Z,1011.26
2016-12-26T03:45:50.562Z,1011.28
2016-12-26T03:46:50.506Z,1011.31
2016-12-26T03:47:50.781Z,1011.25
2016-12-26T03:48:50.508Z,1011.32
2016-12-26T03:49:50.633Z,1011.38
2016-12-26T03:50:50.843Z,1011.25
2016-12-26T03:51:50.615Z,1011.28
2016-12-26T03:52:50.641Z,1011.31
2016-12-26T03:53:50.858Z,1011.15
2016-12-26T03:54:50.657Z,1011.33
2016-12-26T03:55:50.705Z,1011.26
2016-12-26T03:56:50.762Z,1011.32
2016-12-26T03:57:50.628Z,1011.21
2016-12-26T03:58:50.640Z,1011.17
2016-12-26T03:59:50.634Z,1011.23
2016-12-26T04:00:50.653Z,1011.23
2016-12-26T04:01:50.856Z,1011.14
2016-12-26T04:02:50.832Z,1011.21
2016-12-26T04:03:50.856Z,1011.21
2016-12-26T04:04:51.092Z,1011.25
2016-12-26T04:05:50.885Z,1011.2
2016-12-26T04:06:50.867Z,1011.28
2016-12-26T04:07:51.011Z,1011.23
2016-12-26T04:08:51.123Z,1011.25
2016-12-26T04:09:50.927Z,1011.22
2016-12-26T04:10:51.213Z,1011.23
2016-12-26T04:11:51.242Z,1011.33
2016-12-26T04:12:51.016Z,1011.27
2016-12-26T04:13:51.294Z,1011.4
2016-12-26T04:14:50.984Z,1011.37
2016-12-26T04:15:51.155Z,1011.34
2016-12-26T04:16:51.170Z,1011.42
2016-12-26T04:17:50.971Z,1011.29
2016-12-26T04:18:51.213Z,1011.3
2016-12-26T04:19:51.079Z,1011.34
2016-12-26T04:20:51.491Z,1011.37
2016-12-26T04:21:51.387Z,1011.32
2016-12-26T04:22:51.134Z,1011.32
2016-12-26T04:23:51.086Z,1011.26
2016-12-26T04:24:51.371Z,1011.27
2016-12-26T04:25:51.401Z,1011.32
2016-12-26T04:26:51.405Z,1011.19
2016-12-26T04:27:51.144Z,1011.16
2016-12-26T04:28:51.138Z,1011.23
2016-12-26T04:29:51.185Z,1011.23
2016-12-26T04:30:51.574Z,1011.27
2016-12-26T04:31:51.316Z,1011.28
2016-12-26T04:32:51.318Z,1011.25
2016-12-26T04:33:51.390Z,1011.34
2016-12-26T04:34:51.944Z,1011.31
2016-12-26T04:35:51.389Z,1011.25
2016-12-26T04:36:51.625Z,1011.23
2016-12-26T04:37:51.422Z,1011.18
2016-12-26T04:38:51.387Z,1011.21
2016-12-26T04:39:51.327Z,1011.2
2016-12-26T04:40:51.353Z,1011.13
2016-12-26T04:41:52.288Z,1011.09
2016-12-26T04:42:51.491Z,1011.17
2016-12-26T04:43:51.721Z,1011.11
2016-12-26T04:44:51.749Z,1011.08
2016-12-26T04:45:51.653Z,1011.06
2016-12-26T04:46:51.657Z,1011.09
2016-12-26T04:47:51.538Z,1011.07
2016-12-26T04:48:51.649Z,1011.04
2016-12-26T04:49:51.894Z,1011.01
2016-12-26T04:50:51.931Z,1011.02
2016-12-26T04:51:51.814Z,1011.01
2016-12-26T04:52:51.720Z,1010.96
2016-12-26T04:53:51.817Z,1010.97
2016-12-26T04:54:51.724Z,1010.95
2016-12-26T04:55:51.751Z,1010.95
2016-12-26T04:56:51.712Z,1010.94
2016-12-26T04:57:51.841Z,1010.98
2016-12-26T04:58:51.923Z,1010.92
2016-12-26T04:59:51.812Z,1011.02
2016-12-26T05:00:52.224Z,1010.93
2016-12-26T05:01:52.039Z,1010.98
2016-12-26T05:02:52.039Z,1011.05
2016-12-26T05:03:52.632Z,1011.05
2016-12-26T05:04:52.170Z,1011.04
2016-12-26T05:05:51.897Z,1010.99
2016-12-26T05:06:52.062Z,1010.98
2016-12-26T05:07:52.028Z,1010.98
2016-12-26T05:08:52.012Z,1010.93
2016-12-26T05:09:52.052Z,1010.93
2016-12-26T05:10:51.969Z,1010.89
2016-12-26T05:11:52.361Z,1010.83
2016-12-26T05:12:52.261Z,1010.97
2016-12-26T05:13:52.077Z,1010.9
2016-12-26T05:14:52.359Z,1010.85
2016-12-26T05:15:52.452Z,1010.95
2016-12-26T05:16:52.236Z,1010.9
2016-12-26T05:17:52.149Z,1010.87
2016-12-26T05:18:52.373Z,1010.9
2016-12-26T05:19:52.373Z,1010.98
2016-12-26T05:20:52.277Z,1010.89
2016-12-26T05:21:52.212Z,1010.95
2016-12-26T05:22:52.038Z,1010.9
2016-12-26T05:23:52.328Z,1010.98
2016-12-26T05:24:52.235Z,1010.96
2016-12-26T05:25:52.372Z,1011
2016-12-26T05:26:52.477Z,1010.93
2016-12-26T05:27:52.209Z,1010.98
2016-12-26T05:28:52.887Z,1010.95
2016-12-26T05:29:52.652Z,1010.84
2016-12-26T05:30:52.582Z,1010.9
2016-12-26T05:31:52.815Z,1010.88
2016-12-26T05:32:52.474Z,1010.82
2016-12-26T05:33:52.454Z,1010.82
2016-12-26T05:34:52.640Z,1010.8
2016-12-26T05:35:52.703Z,1010.92
2016-12-26T05:36:52.738Z,1010.85
2016-12-26T05:37:52.453Z,1010.82
2016-12-26T05:38:52.484Z,1010.8
2016-12-26T05:39:52.541Z,1010.78
2016-12-26T05:40:52.846Z,1010.76
2016-12-26T05:41:52.589Z,1010.8
2016-12-26T05:42:52.977Z,1010.69
2016-12-26T05:43:52.647Z,1010.81
2016-12-26T05:44:52.947Z,1010.69
2016-12-26T05:45:52.639Z,1010.74
2016-12-26T05:46:53.344Z,1010.73
2016-12-26T05:47:52.714Z,1010.8
2016-12-26T05:48:52.764Z,1010.71
2016-12-26T05:49:52.623Z,1010.75
2016-12-26T05:50:52.584Z,1010.73
2016-12-26T05:51:52.762Z,1010.73
2016-12-26T05:52:52.698Z,1010.7
2016-12-26T05:53:52.788Z,1010.74
2016-12-26T05:54:52.971Z,1010.7
2016-12-26T05:55:52.676Z,1010.77
2016-12-26T05:56:52.806Z,1010.8
2016-12-26T05:57:52.814Z,1010.75
2016-12-26T05:58:54.438Z,1010.72
2016-12-26T05:59:53.129Z,1010.78
2016-12-26T06:00:54.342Z,1010.72
2016-12-26T06:01:53.146Z,1010.71
2016-12-26T06:02:53.229Z,1010.75
2016-12-26T06:03:53.498Z,1010.71
2016-12-26T06:04:53.072Z,1010.71
2016-12-26T06:05:53.516Z,1010.69
2016-12-26T06:06:53.371Z,1010.61
2016-12-26T06:07:53.914Z,1010.65
2016-12-26T06:08:53.207Z,1010.62
2016-12-26T06:09:53.573Z,1010.69
2016-12-26T06:10:53.542Z,1010.57
2016-12-26T06:11:53.275Z,1010.58
2016-12-26T06:12:53.366Z,1010.54
2016-12-26T06:13:54.020Z,1010.54
2016-12-26T06:14:53.275Z,1010.5
2016-12-26T06:15:53.283Z,1010.57
2016-12-26T06:16:53.416Z,1010.55
2016-12-26T06:17:53.670Z,1010.45
2016-12-26T06:18:53.622Z,1010.54
2016-12-26T06:19:53.717Z,1010.52
2016-12-26T06:20:53.249Z,1010.5
2016-12-26T06:21:53.459Z,1010.58
2016-12-26T06:22:54.092Z,1010.56
2016-12-26T06:23:53.728Z,1010.58
2016-12-26T06:24:53.677Z,1010.62
2016-12-26T06:25:53.409Z,1010.54
2016-12-26T06:26:53.275Z,1010.58
2016-12-26T06:27:53.583Z,1010.57
2016-12-26T06:28:54.346Z,1010.57
2016-12-26T06:29:53.977Z,1010.57
2016-12-26T06:30:54.445Z,1010.52
2016-12-26T06:31:53.696Z,1010.51
2016-12-26T06:32:53.986Z,1010.58
2016-12-26T06:33:54.470Z,1010.57
2016-12-26T06:34:54.060Z,1010.52
2016-12-26T06:35:53.479Z,1010.59
2016-12-26T06:36:53.689Z,1010.55
2016-12-26T06:37:54.011Z,1010.61
2016-12-26T06:38:53.482Z,1010.57
2016-12-26T06:39:54.241Z,1010.5
2016-12-26T06:40:55.031Z,1010.61
2016-12-26T06:41:53.730Z,1010.6
2016-12-26T06:42:54.828Z,1010.52
2016-12-26T06:43:54.136Z,1010.53
2016-12-26T06:44:54.046Z,1010.49
2016-12-26T06:45:54.669Z,1010.56
2016-12-26T06:46:53.776Z,1010.61
2016-12-26T06:47:53.964Z,1010.54
2016-12-26T06:48:54.102Z,1010.55
2016-12-26T06:49:53.658Z,1010.59
2016-12-26T06:50:53.925Z,1010.52
2016-12-26T06:51:54.290Z,1010.59
2016-12-26T06:52:54.683Z,1010.62
2016-12-26T06:53:54.877Z,1010.62
2016-12-26T06:54:54.276Z,1010.6
2016-12-26T06:55:54.566Z,1010.63
2016-12-26T06:56:54.653Z,1010.58
2016-12-26T06:57:54.590Z,1010.57
2016-12-26T06:58:54.413Z,1010.61
2016-12-26T06:59:54.323Z,1010.57
2016-12-26T07:00:54.188Z,1010.58
2016-12-26T07:01:54.134Z,1010.59
2016-12-26T07:02:54.028Z,1010.6
2016-12-26T07:03:54.190Z,1010.61
2016-12-26T07:04:54.722Z,1010.6
2016-12-26T07:05:54.505Z,1010.61
2016-12-26T07:06:54.393Z,1010.66
2016-12-26T07:07:54.298Z,1010.63
2016-12-26T07:08:55.543Z,1010.59
2016-12-26T07:09:54.241Z,1010.62
2016-12-26T07:10:54.427Z,1010.56
2016-12-26T07:11:53.936Z,1010.63
2016-12-26T07:12:54.023Z,1010.55
2016-12-26T07:13:54.186Z,1010.58
2016-12-26T07:14:54.064Z,1010.66
2016-12-26T07:15:54.555Z,1010.58
2016-12-26T07:16:54.603Z,1010.6
2016-12-26T07:17:54.176Z,1010.63
2016-12-26T07:18:55.609Z,1010.6
2016-12-26T07:19:54.549Z,1010.55
2016-12-26T07:20:54.225Z,1010.58
2016-12-26T07:21:54.280Z,1010.51
2016-12-26T07:22:54.612Z,1010.6
2016-12-26T07:23:54.373Z,1010.59
2016-12-26T07:24:54.574Z,1010.55
2016-12-26T07:25:54.817Z,1010.52
2016-12-26T07:26:54.441Z,1010.56
2016-12-26T07:27:54.522Z,1010.56
2016-12-26T07:28:54.505Z,1010.5
2016-12-26T07:29:54.498Z,1010.51
2016-12-26T07:30:54.697Z,1010.53
2016-12-26T07:31:54.609Z,1010.53
2016-12-26T07:32:54.436Z,1010.54
2016-12-26T07:33:54.566Z,1010.5
2016-12-26T07:34:54.798Z,1010.53
2016-12-26T07:35:54.549Z,1010.6
2016-12-26T07:36:54.620Z,1010.54
2016-12-26T07:37:54.397Z,1010.56
2016-12-26T07:38:54.572Z,1010.63
2016-12-26T07:39:54.695Z,1010.64
2016-12-26T07:40:54.648Z,1010.59
2016-12-26T07:41:54.600Z,1010.61
2016-12-26T07:42:54.884Z,1010.59
2016-12-26T07:43:54.765Z,1010.58
2016-12-26T07:44:55.103Z,1010.59
2016-12-26T07:45:55.619Z,1010.57
2016-12-26T07:46:54.762Z,1010.63
2016-12-26T07:47:54.733Z,1010.7
2016-12-26T07:48:54.996Z,1010.62
2016-12-26T07:49:54.795Z,1010.67
2016-12-26T07:50:55.380Z,1010.62
2016-12-26T07:51:54.852Z,1010.56
2016-12-26T07:52:55.051Z,1010.54
2016-12-26T07:53:55.154Z,1010.63
2016-12-26T07:54:55.074Z,1010.56
2016-12-26T07:55:55.224Z,1010.55
2016-12-26T07:56:55.214Z,1010.64
2016-12-26T07:57:55.132Z,1010.67
2016-12-26T07:59:54.914Z,1010.78
2016-12-26T08:00:55.008Z,1010.74
2016-12-26T08:01:55.446Z,1010.71
2016-12-26T08:02:55.163Z,1010.73
2016-12-26T08:03:55.079Z,1010.8
2016-12-26T08:04:55.470Z,1010.8
2016-12-26T08:05:55.119Z,1010.76
2016-12-26T08:06:55.251Z,1010.77
2016-12-26T08:07:55.100Z,1010.72
2016-12-26T08:08:55.105Z,1010.68
2016-12-26T08:09:55.247Z,1010.78
2016-12-26T08:10:55.228Z,1010.73
2016-12-26T08:11:55.043Z,1010.78
2016-12-26T08:12:55.104Z,1010.61
2016-12-26T08:13:55.168Z,1010.61
2016-12-26T08:14:55.331Z,1010.67
2016-12-26T08:15:55.081Z,1010.57
2016-12-26T08:16:55.301Z,1010.61
2016-12-26T08:17:55.321Z,1010.61
2016-12-26T08:18:55.702Z,1010.55
2016-12-26T08:19:55.469Z,1010.48
2016-12-26T08:20:55.283Z,1010.48
2016-12-26T08:21:55.320Z,1010.45
2016-12-26T08:22:55.739Z,1010.53
2016-12-26T08:23:55.461Z,1010.39
2016-12-26T08:24:55.560Z,1010.45
2016-12-26T08:25:55.542Z,1010.47
2016-12-26T08:26:56.346Z,1010.43
2016-12-26T08:27:56.026Z,1010.39
2016-12-26T08:28:55.632Z,1010.45
2016-12-26T08:29:55.860Z,1010.51
2016-12-26T08:30:55.618Z,1010.39
2016-12-26T08:31:55.762Z,1010.42
2016-12-26T08:32:55.910Z,1010.44
2016-12-26T08:33:55.625Z,1010.4
2016-12-26T08:34:55.390Z,1010.35
2016-12-26T08:35:55.878Z,1010.37
2016-12-26T08:36:55.888Z,1010.35
2016-12-26T08:37:55.576Z,1010.41
2016-12-26T08:38:55.639Z,1010.37
2016-12-26T08:39:55.846Z,1010.48
2016-12-26T08:40:55.808Z,1010.42
2016-12-26T08:41:55.689Z,1010.39
2016-12-26T08:42:55.892Z,1010.43
2016-12-26T08:43:55.822Z,1010.42
2016-12-26T08:44:55.743Z,1010.35
2016-12-26T08:45:55.764Z,1010.4
2016-12-26T08:46:55.656Z,1010.37
2016-12-26T08:47:55.744Z,1010.37
2016-12-26T08:48:55.692Z,1010.38
2016-12-26T08:49:55.786Z,1010.32
2016-12-26T08:50:56.049Z,1010.32
2016-12-26T08:51:56.043Z,1010.28
2016-12-26T08:52:55.998Z,1010.26
2016-12-26T08:53:55.836Z,1010.38
2016-12-26T08:54:55.991Z,1010.34
2016-12-26T08:55:56.518Z,1010.26
2016-12-26T08:56:55.945Z,1010.25
2016-12-26T08:57:55.934Z,1010.22
2016-12-26T08:58:56.129Z,1010.33
2016-12-26T08:59:56.127Z,1010.33
2016-12-26T09:00:55.994Z,1010.26
2016-12-26T09:01:56.502Z,1010.29
2016-12-26T09:02:56.091Z,1010.3
2016-12-26T09:03:56.093Z,1010.36
2016-12-26T09:04:55.885Z,1010.36
2016-12-26T09:05:56.280Z,1010.26
2016-12-26T09:06:56.399Z,1010.32
2016-12-26T09:07:56.173Z,1010.34
2016-12-26T09:08:56.027Z,1010.32
2016-12-26T09:09:56.342Z,1010.34
2016-12-26T09:10:56.252Z,1010.45
2016-12-26T09:11:56.172Z,1010.48
2016-12-26T09:12:56.747Z,1010.37
2016-12-26T09:13:56.774Z,1010.38
2016-12-26T09:14:56.257Z,1010.44
2016-12-26T09:15:56.452Z,1010.42
2016-12-26T09:16:56.140Z,1010.35
2016-12-26T09:17:57.288Z,1010.36
2016-12-26T09:18:57.963Z,1010.32
2016-12-26T09:19:56.308Z,1010.34
2016-12-26T09:20:57.184Z,1010.28
2016-12-26T09:21:57.520Z,1010.38
2016-12-26T09:22:57.221Z,1010.35
2016-12-26T09:24:56.827Z,1010.38
2016-12-26T09:25:57.337Z,1010.35
2016-12-26T09:26:57.392Z,1010.43
2016-12-26T09:27:56.748Z,1010.44
2016-12-26T09:28:58.448Z,1010.41
2016-12-26T09:29:56.447Z,1010.34
2016-12-26T09:30:56.487Z,1010.52
2016-12-26T09:31:56.827Z,1010.54
2016-12-26T09:32:56.634Z,1010.48
2016-12-26T09:33:57.502Z,1010.52
2016-12-26T09:34:56.612Z,1010.51
2016-12-26T09:35:57.222Z,1010.46
2016-12-26T09:36:56.796Z,1010.5
2016-12-26T09:37:56.781Z,1010.47
2016-12-26T09:38:56.746Z,1010.46
2016-12-26T09:39:57.136Z,1010.44
2016-12-26T09:40:56.675Z,1010.48
2016-12-26T09:41:57.108Z,1010.49
2016-12-26T09:42:57.066Z,1010.43
2016-12-26T09:43:57.103Z,1010.37
2016-12-26T09:44:56.820Z,1010.32
2016-12-26T09:45:57.139Z,1010.39
2016-12-26T09:46:57.039Z,1010.28
2016-12-26T09:47:56.809Z,1010.32
2016-12-26T09:48:56.811Z,1010.36
2016-12-26T09:49:56.754Z,1010.29
2016-12-26T09:50:56.935Z,1010.16
2016-12-26T09:51:56.889Z,1010.27
2016-12-26T09:52:57.524Z,1010.19
2016-12-26T09:53:57.012Z,1010.26
2016-12-26T09:54:57.255Z,1010.13
2016-12-26T09:55:57.109Z,1010.2
2016-12-26T09:56:57.147Z,1010.09
2016-12-26T09:57:57.861Z,1010.31
2016-12-26T09:58:57.150Z,1010.27
2016-12-26T09:59:57.154Z,1010.51
2016-12-26T10:00:57.459Z,1010.44
2016-12-26T10:01:57.155Z,1010.49
2016-12-26T10:02:57.147Z,1010.63
2016-12-26T10:03:58.952Z,1011.2
2016-12-26T10:04:57.089Z,1011.18
2016-12-26T10:05:57.071Z,1011.33
2016-12-26T10:06:57.177Z,1011.23
2016-12-26T10:07:57.250Z,1011.36
2016-12-26T10:08:57.187Z,1011.6
2016-12-26T10:09:57.418Z,1011.69
2016-12-26T10:10:57.491Z,1011.56
2016-12-26T10:11:57.167Z,1011.57
2016-12-26T10:12:57.406Z,1011.67
2016-12-26T10:13:57.835Z,1011.64
2016-12-26T10:14:58.031Z,1011.57
2016-12-26T10:15:58.189Z,1011.71
2016-12-26T10:16:57.690Z,1011.68
2016-12-26T10:17:57.451Z,1011.77
2016-12-26T10:18:57.727Z,1011.82
2016-12-26T10:19:57.914Z,1011.88
2016-12-26T10:20:57.439Z,1011.63
2016-12-26T10:21:57.359Z,1011.81
2016-12-26T10:22:58.390Z,1011.87
2016-12-26T10:23:57.426Z,1011.95
2016-12-26T10:24:58.839Z,1012.07
2016-12-26T10:25:58.193Z,1012.12
2016-12-26T10:26:58.951Z,1012.15
2016-12-26T10:27:57.442Z,1012.19
2016-12-26T10:28:58.163Z,1012.3
2016-12-26T10:30:00.555Z,1012.3
2016-12-26T10:30:58.705Z,1012.24
2016-12-26T10:31:59.225Z,1012.36
2016-12-26T10:32:57.910Z,1012.39
2016-12-26T10:33:58.925Z,1012.45
2016-12-26T10:34:57.636Z,1012.68
2016-12-26T10:35:57.660Z,1012.56
2016-12-26T10:36:57.722Z,1012.62
2016-12-26T10:37:57.727Z,1012.67
2016-12-26T10:38:57.650Z,1012.7
2016-12-26T10:39:58.238Z,1012.67
2016-12-26T10:40:57.878Z,1012.67
2016-12-26T10:41:57.930Z,1012.65
2016-12-26T10:43:57.841Z,1012.72
2016-12-26T10:44:57.868Z,1012.72
2016-12-26T10:45:58.323Z,1012.76
2016-12-26T10:47:57.998Z,1012.76
2016-12-26T10:48:58.633Z,1012.94
2016-12-26T10:49:59.208Z,1012.89
2016-12-26T10:50:57.831Z,1013
2016-12-26T10:51:57.824Z,1013.03
2016-12-26T10:52:58.107Z,1013.13
2016-12-26T10:53:58.063Z,1013.03
2016-12-26T10:54:57.953Z,1013.11
2016-12-26T10:56:00.714Z,1013.17
2016-12-26T10:56:58.649Z,1013.14
2016-12-26T10:57:58.571Z,1013.14
2016-12-26T10:58:57.978Z,1013.32
2016-12-26T10:59:58.156Z,1013.31
2016-12-26T11:00:58.537Z,1013.29
2016-12-26T11:01:58.057Z,1013.48
2016-12-26T11:02:58.165Z,1013.44
2016-12-26T11:03:58.151Z,1013.41
2016-12-26T11:04:58.138Z,1013.43
2016-12-26T11:05:58.170Z,1013.43
2016-12-26T11:06:58.259Z,1013.4
2016-12-26T11:07:58.182Z,1013.54
2016-12-26T11:08:58.123Z,1013.63
2016-12-26T11:09:58.187Z,1013.53
2016-12-26T11:10:58.309Z,1013.61
2016-12-26T11:11:58.460Z,1013.8
2016-12-26T11:12:58.367Z,1013.61
2016-12-26T11:13:58.738Z,1013.85
2016-12-26T11:14:58.297Z,1013.68
2016-12-26T11:15:58.472Z,1013.58
2016-12-26T11:16:58.439Z,1013.63
2016-12-26T11:17:58.450Z,1013.64
2016-12-26T11:18:58.301Z,1013.69
2016-12-26T11:19:58.429Z,1013.67
2016-12-26T11:20:58.366Z,1013.66
2016-12-26T11:21:58.557Z,1013.77
2016-12-26T11:22:58.415Z,1013.82
2016-12-26T11:23:58.429Z,1013.71
2016-12-26T11:24:58.371Z,1013.88
2016-12-26T11:25:58.377Z,1013.88
2016-12-26T11:26:58.570Z,1013.88
2016-12-26T11:27:58.509Z,1013.93
2016-12-26T11:28:58.545Z,1013.95
2016-12-26T11:29:58.481Z,1013.99
2016-12-26T11:30:58.546Z,1014
2016-12-26T11:31:58.822Z,1014
2016-12-26T11:32:58.645Z,1013.91
2016-12-26T11:33:58.753Z,1013.99
2016-12-26T11:34:58.589Z,1013.83
2016-12-26T11:35:58.870Z,1013.77
2016-12-26T11:36:58.830Z,1013.75
2016-12-26T11:37:58.679Z,1013.78
2016-12-26T11:38:58.749Z,1013.7
2016-12-26T11:39:58.735Z,1013.78
2016-12-26T11:40:58.729Z,1013.64
2016-12-26T11:41:59.558Z,1013.72
2016-12-26T11:42:58.747Z,1013.68
2016-12-26T11:43:59.027Z,1013.58
2016-12-26T11:44:59.004Z,1013.63
2016-12-26T11:45:59.093Z,1013.68
2016-12-26T11:46:58.917Z,1013.72
2016-12-26T11:47:58.842Z,1013.67
2016-12-26T11:48:58.886Z,1013.71
2016-12-26T11:49:58.941Z,1013.71
2016-12-26T11:50:58.903Z,1013.65
2016-12-26T11:51:59.234Z,1013.56
2016-12-26T11:52:59.668Z,1013.53
2016-12-26T11:53:58.970Z,1013.5
2016-12-26T11:54:59.334Z,1013.48
2016-12-26T11:55:59.043Z,1013.42
2016-12-26T11:56:58.993Z,1013.48
2016-12-26T11:57:59.194Z,1013.59
2016-12-26T11:58:59.019Z,1013.7
2016-12-26T11:59:58.948Z,1013.76
2016-12-26T12:00:59.047Z,1013.8
2016-12-26T12:01:59.082Z,1013.79
2016-12-26T12:02:58.981Z,1013.64
2016-12-26T12:03:59.032Z,1013.71
2016-12-26T12:04:58.983Z,1013.75
2016-12-26T12:05:59.268Z,1013.74
2016-12-26T12:06:59.548Z,1013.71
2016-12-26T12:07:59.162Z,1013.7
2016-12-26T12:08:59.715Z,1013.75
2016-12-26T12:09:59.323Z,1013.78
2016-12-26T12:10:59.202Z,1013.82
2016-12-26T12:11:59.485Z,1013.7
2016-12-26T12:12:59.419Z,1013.62